Time;durP1;ratioP1;P1;durP2;ratioP2;P2;SDS_P1;SDS_P2;PMS_P1;PMS_P2;Temp;Humidity;BMP_temperature;BMP_pressure;BME280_temperature;BME280_humidity;BME280_pressure;Samples;Min_cycle;Max_cycle;Signal;HPM_P1;HPM_P2
2022/07/17 00:02:13;;;;;;;3.27;0.93;;;20.10;1.00;;;;;;5098521;28;20488;-73
2022/07/17 00:04:40;;;;;;;2.30;0.97;;;20.10;1.00;;;;;;5098415;28;20819;-73
2022/07/17 00:07:09;;;;;;;2.07;1.03;;;20.20;1.00;;;;;;5098944;28;20452;-73
2022/07/17 00:09:36;;;;;;;4.53;0.90;;;20.20;1.00;;;;;;5098338;28;21001;-72
2022/07/17 00:12:04;;;;;;;1.50;0.90;;;20.20;1.00;;;;;;5097980;28;20454;-72
2022/07/17 00:14:31;;;;;;;1.40;1.00;;;20.20;1.00;;;;;;5096795;28;20560;-72
2022/07/17 00:16:57;;;;;;;1.10;0.80;;;20.20;1.00;;;;;;5097567;28;20532;-72
2022/07/17 00:19:25;;;;;;;1.00;0.70;;;20.20;1.00;;;;;;5098121;28;20516;-73
2022/07/17 00:21:52;;;;;;;1.07;0.90;;;20.10;1.00;;;;;;5096475;28;20449;-72
2022/07/17 00:24:20;;;;;;;1.10;0.90;;;20.00;1.00;;;;;;5096542;28;20826;-72
2022/07/17 00:26:48;;;;;;;1.20;0.80;;;19.90;1.00;;;;;;5097276;28;20544;-73
2022/07/17 00:29:15;;;;;;;0.90;0.70;;;19.90;1.00;;;;;;5095509;28;20521;-72
2022/07/17 00:31:42;;;;;;;1.50;0.77;;;19.80;1.00;;;;;;5095886;28;20533;-72
2022/07/17 00:34:09;;;;;;;1.07;0.73;;;19.70;1.00;;;;;;5096169;28;20492;-72
2022/07/17 00:36:36;;;;;;;0.90;0.80;;;19.70;1.00;;;;;;5096416;28;20469;-72
2022/07/17 00:39:03;;;;;;;1.73;1.03;;;19.70;1.00;;;;;;5096351;28;20828;-72
2022/07/17 00:41:32;;;;;;;0.97;0.80;;;19.60;1.00;;;;;;5096415;28;20474;-72
2022/07/17 00:44:05;;;;;;;2.43;1.00;;;19.60;1.00;;;;;;5096549;28;20544;-72
2022/07/17 00:46:32;;;;;;;1.07;0.80;;;19.50;1.00;;;;;;5096685;28;20454;-72
2022/07/17 00:48:59;;;;;;;1.40;0.80;;;19.50;1.00;;;;;;5096221;28;20454;-73
2022/07/17 00:51:26;;;;;;;1.03;0.80;;;19.40;1.00;;;;;;5097588;28;20507;-72
2022/07/17 00:53:55;;;;;;;1.20;0.77;;;19.40;1.00;;;;;;5097519;28;20450;-72
2022/07/17 00:56:23;;;;;;;0.80;0.60;;;19.40;1.00;;;;;;5097525;28;20519;-73
2022/07/17 00:58:52;;;;;;;0.90;0.70;;;19.40;1.00;;;;;;5097169;28;20506;-72
2022/07/17 01:01:19;;;;;;;1.03;0.87;;;19.30;1.00;;;;;;5097344;28;20473;-72
2022/07/17 01:03:46;;;;;;;1.40;0.77;;;19.30;1.00;;;;;;5097389;28;20923;-74
2022/07/17 01:06:13;;;;;;;0.70;0.60;;;19.20;1.00;;;;;;5097400;28;20550;-73
2022/07/17 01:08:40;;;;;;;2.13;0.80;;;19.30;1.00;;;;;;5097539;28;20536;-73
2022/07/17 01:11:09;;;;;;;1.10;0.73;;;19.30;1.00;;;;;;5097289;28;20489;-72
2022/07/17 01:13:36;;;;;;;1.10;0.70;;;19.40;1.00;;;;;;5097365;28;20463;-73
2022/07/17 01:16:05;;;;;;;0.90;0.70;;;19.40;1.00;;;;;;5096228;28;20480;-73
2022/07/17 01:18:32;;;;;;;1.10;0.60;;;19.40;1.00;;;;;;5096363;28;20916;-72
2022/07/17 01:21:05;;;;;;;1.77;0.80;;;19.50;1.00;;;;;;5096926;28;20510;-72
2022/07/17 01:23:31;;;;;;;0.80;0.70;;;19.30;1.00;;;;;;5096796;28;20446;-73
2022/07/17 01:25:58;;;;;;;0.90;0.70;;;19.20;1.00;;;;;;5096754;28;20481;-73
2022/07/17 01:28:25;;;;;;;1.20;0.80;;;19.00;1.00;;;;;;5096404;28;20825;-73
2022/07/17 01:30:53;;;;;;;0.90;0.63;;;19.00;1.00;;;;;;5096884;28;20610;-72
2022/07/17 01:33:21;;;;;;;1.03;0.70;;;19.00;1.00;;;;;;5096308;28;20482;-73
2022/07/17 01:35:48;;;;;;;4.23;0.80;;;19.00;1.00;;;;;;5097162;28;20493;-73
2022/07/17 01:38:16;;;;;;;2.67;0.80;;;18.90;1.00;;;;;;5096704;28;20492;-72
2022/07/17 01:40:43;;;;;;;1.00;0.70;;;18.90;1.00;;;;;;5096523;28;20998;-73
2022/07/17 01:43:10;;;;;;;1.07;0.90;;;18.90;1.00;;;;;;5096690;28;20481;-73
2022/07/17 01:45:37;;;;;;;1.03;0.80;;;19.00;1.00;;;;;;5096911;28;20507;-73
2022/07/17 01:48:05;;;;;;;1.00;0.73;;;19.10;1.00;;;;;;5096529;28;20748;-73
2022/07/17 01:50:31;;;;;;;1.07;0.80;;;19.10;1.00;;;;;;5096123;28;20485;-73
2022/07/17 01:52:58;;;;;;;1.07;0.83;;;19.20;1.00;;;;;;5095961;28;20561;-72
2022/07/17 01:55:27;;;;;;;1.03;0.80;;;19.20;1.00;;;;;;5096148;28;20458;-72
2022/07/17 01:57:54;;;;;;;0.80;0.70;;;19.20;1.00;;;;;;5095942;28;20548;-72
2022/07/17 02:00:23;;;;;;;1.00;0.77;;;19.30;1.00;;;;;;5096097;28;20936;-72
2022/07/17 02:02:51;;;;;;;0.90;0.80;;;19.20;1.00;;;;;;5096591;28;20461;-73
2022/07/17 02:05:18;;;;;;;1.17;0.80;;;19.10;1.00;;;;;;5096419;28;20581;-73
2022/07/17 02:07:45;;;;;;;1.33;0.80;;;19.00;1.00;;;;;;5096512;28;20533;-73
2022/07/17 02:10:13;;;;;;;1.10;0.87;;;18.90;1.00;;;;;;5096109;28;20524;-73
2022/07/17 02:12:42;;;;;;;1.20;0.80;;;18.80;1.00;;;;;;5097091;28;20950;-72
2022/07/17 02:15:10;;;;;;;0.80;0.70;;;18.70;1.00;;;;;;5103366;28;20531;-72
2022/07/17 02:17:37;;;;;;;0.90;0.70;;;18.60;1.00;;;;;;5103055;28;20445;-72
2022/07/17 02:20:05;;;;;;;1.10;0.73;;;18.50;1.00;;;;;;5103125;28;20449;-72
2022/07/17 02:22:31;;;;;;;1.07;0.80;;;18.50;1.00;;;;;;5103109;28;20453;-72
2022/07/17 02:24:58;;;;;;;1.00;0.80;;;18.50;1.00;;;;;;5102861;28;20488;-72
2022/07/17 02:27:25;;;;;;;1.10;0.80;;;18.40;1.00;;;;;;5102615;28;20480;-72
2022/07/17 02:29:54;;;;;;;1.10;0.90;;;18.40;1.00;;;;;;5102857;28;20524;-72
2022/07/17 02:32:21;;;;;;;0.80;0.70;;;18.40;1.00;;;;;;5102494;28;20480;-72
2022/07/17 02:34:48;;;;;;;2.10;0.80;;;18.40;1.00;;;;;;5102740;28;20453;-72
2022/07/17 02:37:15;;;;;;;1.67;0.80;;;18.40;1.00;;;;;;5102396;28;20445;-72
2022/07/17 02:39:52;;;;;;;1.50;0.80;;;18.40;1.00;;;;;;5102110;28;20571;-73
2022/07/17 02:42:20;;;;;;;1.00;0.80;;;18.40;1.00;;;;;;5102096;28;20480;-72
2022/07/17 02:44:47;;;;;;;1.10;0.70;;;18.50;1.00;;;;;;5102361;28;20532;-73
2022/07/17 02:47:22;;;;;;;1.10;0.70;;;18.40;1.00;;;;;;5102354;28;20500;-73
2022/07/17 02:49:49;;;;;;;0.90;0.73;;;18.50;1.00;;;;;;5102159;28;20773;-72
2022/07/17 02:52:16;;;;;;;1.10;0.80;;;18.60;1.00;;;;;;5102889;28;20476;-73
2022/07/17 02:54:43;;;;;;;1.00;0.70;;;18.50;1.00;;;;;;5103232;28;20457;-72
2022/07/17 02:57:10;;;;;;;1.10;0.70;;;18.50;1.00;;;;;;5102782;28;20445;-72
2022/07/17 02:59:38;;;;;;;2.67;0.83;;;18.40;1.00;;;;;;5102349;28;20488;-72
2022/07/17 03:02:05;;;;;;;0.87;0.70;;;18.40;1.00;;;;;;5102670;28;20506;-73
2022/07/17 03:04:33;;;;;;;0.80;0.80;;;18.30;1.00;;;;;;5102746;28;20500;-72
2022/07/17 03:07:00;;;;;;;1.03;0.77;;;18.30;1.00;;;;;;5102439;28;20496;-72
2022/07/17 03:09:27;;;;;;;1.07;0.80;;;18.30;1.00;;;;;;5102356;28;20529;-73
2022/07/17 03:11:54;;;;;;;2.00;0.87;;;18.20;1.00;;;;;;5102500;28;20836;-72
2022/07/17 03:14:21;;;;;;;1.10;0.80;;;18.20;1.00;;;;;;5102440;28;20633;-73
2022/07/17 03:16:48;;;;;;;1.37;0.80;;;18.20;1.00;;;;;;5102861;28;21010;-73
2022/07/17 03:19:15;;;;;;;0.90;0.73;;;18.20;1.00;;;;;;5102329;28;20550;-73
2022/07/17 03:21:43;;;;;;;1.20;0.70;;;18.20;1.00;;;;;;5102480;28;20457;-72
2022/07/17 03:24:10;;;;;;;1.20;0.90;;;18.30;1.00;;;;;;5101723;28;20779;-72
2022/07/17 03:26:37;;;;;;;1.87;0.93;;;18.30;1.00;;;;;;5098540;28;20531;-72
2022/07/17 03:29:04;;;;;;;0.97;0.70;;;18.30;1.00;;;;;;5098598;28;20908;-72
2022/07/17 03:31:31;;;;;;;0.90;0.70;;;18.30;1.00;;;;;;5097773;28;20481;-72
2022/07/17 03:33:58;;;;;;;1.10;0.87;;;18.20;1.00;;;;;;5097825;28;20536;-73
2022/07/17 03:36:25;;;;;;;1.20;0.90;;;18.10;1.00;;;;;;5097742;28;20520;-72
2022/07/17 03:38:53;;;;;;;1.20;0.80;;;18.20;1.00;;;;;;5097739;28;20481;-73
2022/07/17 03:41:20;;;;;;;1.20;0.80;;;18.10;1.00;;;;;;5098076;28;20560;-72
2022/07/17 03:43:47;;;;;;;1.10;0.83;;;18.10;1.00;;;;;;5097639;28;20481;-72
2022/07/17 03:46:14;;;;;;;1.00;0.80;;;18.00;1.00;;;;;;5098331;28;20492;-72
2022/07/17 03:48:41;;;;;;;1.07;0.80;;;17.90;1.00;;;;;;5098674;28;20555;-73
2022/07/17 03:51:08;;;;;;;1.20;0.70;;;18.00;1.00;;;;;;5098937;28;20516;-73
2022/07/17 03:53:35;;;;;;;1.70;0.83;;;17.90;1.00;;;;;;5099143;28;20488;-72
2022/07/17 03:56:04;;;;;;;1.03;0.70;;;17.90;1.00;;;;;;5098867;28;20821;-72
2022/07/17 03:58:32;;;;;;;0.93;0.70;;;17.80;1.00;;;;;;5098899;28;20450;-73
2022/07/17 04:00:59;;;;;;;2.20;0.80;;;17.80;1.00;;;;;;5097691;28;20907;-73
2022/07/17 04:03:26;;;;;;;1.03;0.80;;;17.80;1.00;;;;;;5097939;28;20574;-73
2022/07/17 04:05:53;;;;;;;1.00;0.83;;;17.70;1.00;;;;;;5098231;28;20485;-72
2022/07/17 04:08:20;;;;;;;1.00;0.80;;;17.70;1.00;;;;;;5098241;28;20544;-72
2022/07/17 04:10:47;;;;;;;0.93;0.80;;;17.70;1.00;;;;;;5098099;28;20517;-72
2022/07/17 04:13:15;;;;;;;2.07;0.90;;;17.60;1.00;;;;;;5098516;28;20442;-73
2022/07/17 04:15:52;;;;;;;1.00;0.80;;;17.60;1.00;;;;;;5097334;28;20493;-72
2022/07/17 04:18:21;;;;;;;1.23;0.70;;;17.60;1.00;;;;;;5096741;28;20743;-72
2022/07/17 04:20:48;;;;;;;1.00;0.73;;;17.70;1.00;;;;;;5097121;28;20454;-73
2022/07/17 04:23:15;;;;;;;1.10;0.80;;;17.70;1.00;;;;;;5097999;28;20477;-73
2022/07/17 04:25:43;;;;;;;1.00;0.80;;;17.70;1.00;;;;;;5097844;28;20458;-72
2022/07/17 04:28:10;;;;;;;1.37;0.83;;;17.70;1.00;;;;;;5096354;28;20445;-72
2022/07/17 04:30:39;;;;;;;1.20;0.80;;;17.80;1.00;;;;;;5096591;28;20753;-72
2022/07/17 04:33:06;;;;;;;1.20;0.80;;;17.80;1.00;;;;;;5097551;28;20446;-73
2022/07/17 04:35:33;;;;;;;1.00;0.90;;;17.50;1.00;;;;;;5097732;28;20500;-73
2022/07/17 04:38:00;;;;;;;1.10;0.90;;;17.50;1.00;;;;;;5097707;28;20452;-72
2022/07/17 04:40:27;;;;;;;1.00;0.70;;;17.50;1.00;;;;;;5096824;28;20477;-73
2022/07/17 04:42:54;;;;;;;1.00;0.80;;;17.60;1.00;;;;;;5096473;28;20489;-72
2022/07/17 04:45:21;;;;;;;3.83;0.93;;;17.50;1.00;;;;;;5096786;28;20496;-73
2022/07/17 04:47:49;;;;;;;1.60;1.00;;;17.50;1.00;;;;;;5096696;28;20449;-73
2022/07/17 04:50:17;;;;;;;1.17;1.07;;;17.60;1.00;;;;;;5096980;28;20481;-72
2022/07/17 04:52:44;;;;;;;1.00;0.80;;;17.70;1.00;;;;;;5097458;28;20877;-73
2022/07/17 04:55:10;;;;;;;1.67;1.07;;;17.80;1.00;;;;;;5097129;28;20485;-72
2022/07/17 04:57:37;;;;;;;2.47;1.00;;;17.80;1.00;;;;;;5097265;28;20911;-73
2022/07/17 05:00:05;;;;;;;1.70;1.00;;;17.60;1.00;;;;;;5097519;28;20552;-71
2022/07/17 05:02:33;;;;;;;2.10;0.97;;;17.50;1.00;;;;;;5097853;28;20450;-72
2022/07/17 05:05:01;;;;;;;1.40;1.00;;;17.50;1.00;;;;;;5097447;28;20961;-72
2022/07/17 05:07:28;;;;;;;1.20;1.00;;;17.60;1.00;;;;;;5097375;28;20491;-72
2022/07/17 05:09:55;;;;;;;1.30;0.80;;;17.50;1.00;;;;;;5097179;28;20514;-73
2022/07/17 05:12:22;;;;;;;2.30;1.03;;;17.50;1.00;;;;;;5097213;28;20840;-72
2022/07/17 05:14:49;;;;;;;1.30;1.20;;;17.50;1.00;;;;;;5097242;28;20477;-72
2022/07/17 05:17:16;;;;;;;1.43;1.10;;;17.50;1.00;;;;;;5097439;28;20485;-72
2022/07/17 05:19:43;;;;;;;2.03;1.10;;;17.50;1.00;;;;;;5096966;28;20457;-72
2022/07/17 05:22:11;;;;;;;1.73;1.10;;;17.40;1.00;;;;;;5096990;28;20816;-72
2022/07/17 05:24:38;;;;;;;1.50;1.10;;;17.50;1.00;;;;;;5096767;28;20504;-72
2022/07/17 05:27:05;;;;;;;1.20;1.10;;;17.50;1.00;;;;;;5097171;28;20441;-73
2022/07/17 05:29:32;;;;;;;1.30;1.20;;;17.60;1.00;;;;;;5096655;28;20808;-72
2022/07/17 05:31:59;;;;;;;1.13;1.00;;;17.60;1.00;;;;;;5096220;28;20521;-72
2022/07/17 05:34:26;;;;;;;1.53;1.00;;;17.70;1.00;;;;;;5097054;28;20473;-72
2022/07/17 05:36:53;;;;;;;1.90;0.97;;;17.70;1.00;;;;;;5096980;28;20507;-72
2022/07/17 05:39:21;;;;;;;6.23;1.20;;;17.80;1.00;;;;;;5095595;28;20463;-73
2022/07/17 05:41:48;;;;;;;2.27;1.10;;;17.80;1.00;;;;;;5096564;28;20441;-73
2022/07/17 05:44:15;;;;;;;1.73;1.43;;;17.70;1.00;;;;;;5096517;28;20522;-72
2022/07/17 05:46:42;;;;;;;1.30;1.07;;;17.70;1.00;;;;;;5096882;28;20488;-73
2022/07/17 05:49:09;;;;;;;2.13;1.00;;;17.60;1.00;;;;;;5095842;28;20461;-72
2022/07/17 05:51:36;;;;;;;4.80;1.10;;;17.70;1.00;;;;;;5096387;28;20517;-72
2022/07/17 05:54:03;;;;;;;1.40;1.17;;;17.60;1.00;;;;;;5096516;28;20446;-72
2022/07/17 05:56:31;;;;;;;1.50;1.10;;;17.70;1.00;;;;;;5096900;28;20749;-72
2022/07/17 05:58:58;;;;;;;3.17;1.40;;;17.70;1.00;;;;;;5096424;28;20489;-73
2022/07/17 06:01:25;;;;;;;1.30;1.10;;;17.70;1.00;;;;;;5096422;28;20937;-74
2022/07/17 06:03:52;;;;;;;1.40;1.10;;;17.80;1.00;;;;;;5096226;28;20449;-73
2022/07/17 06:06:20;;;;;;;2.10;1.40;;;18.10;1.00;;;;;;5096416;28;20426;-73
2022/07/17 06:08:47;;;;;;;1.10;0.90;;;18.30;1.00;;;;;;5096768;28;20456;-73
2022/07/17 06:11:14;;;;;;;1.50;1.30;;;18.40;1.00;;;;;;5096194;28;20952;-73
2022/07/17 06:13:43;;;;;;;1.77;1.10;;;18.50;1.00;;;;;;5096266;28;20506;-73
2022/07/17 06:16:10;;;;;;;1.40;1.10;;;18.50;1.00;;;;;;5096645;28;20445;-72
2022/07/17 06:18:37;;;;;;;1.87;1.03;;;18.60;1.00;;;;;;5096204;28;20468;-72
2022/07/17 06:21:04;;;;;;;1.77;1.00;;;18.60;1.00;;;;;;5095972;28;20450;-72
2022/07/17 06:23:31;;;;;;;1.20;1.00;;;18.70;1.00;;;;;;5096482;28;20485;-72
2022/07/17 06:25:58;;;;;;;2.53;1.20;;;18.90;1.00;;;;;;5096338;28;20457;-72
2022/07/17 06:28:25;;;;;;;1.17;1.00;;;18.90;1.00;;;;;;5096047;28;20449;-73
2022/07/17 06:30:53;;;;;;;1.40;1.30;;;18.80;1.00;;;;;;5096320;28;20482;-71
2022/07/17 06:33:20;;;;;;;1.50;1.10;;;18.90;1.00;;;;;;5095862;28;20510;-72
2022/07/17 06:35:47;;;;;;;1.60;1.13;;;19.00;1.00;;;;;;5096405;28;20454;-72
2022/07/17 06:38:14;;;;;;;2.40;1.10;;;19.10;1.00;;;;;;5095613;28;20530;-72
2022/07/17 06:40:41;;;;;;;1.80;1.10;;;19.20;1.00;;;;;;5096500;28;20489;-72
2022/07/17 06:43:08;;;;;;;1.33;1.10;;;19.40;1.00;;;;;;5096174;28;20477;-72
2022/07/17 06:45:35;;;;;;;1.20;1.00;;;19.50;1.00;;;;;;5096368;28;20453;-72
2022/07/17 06:48:03;;;;;;;1.10;0.97;;;19.60;1.00;;;;;;5096018;28;20446;-73
2022/07/17 06:50:30;;;;;;;3.30;1.20;;;19.60;1.00;;;;;;5096141;28;20461;-73
2022/07/17 06:52:58;;;;;;;1.10;0.90;;;19.50;1.00;;;;;;5095796;28;20594;-72
2022/07/17 06:55:25;;;;;;;1.33;0.93;;;19.60;1.00;;;;;;5095545;28;20462;-73
2022/07/17 06:57:52;;;;;;;1.40;1.00;;;19.70;1.00;;;;;;5094709;28;20905;-73
2022/07/17 07:00:19;;;;;;;1.30;0.97;;;19.60;1.00;;;;;;5097707;28;20458;-73
2022/07/17 07:02:46;;;;;;;1.63;0.93;;;19.60;1.00;;;;;;5094451;28;20457;-73
2022/07/17 07:05:14;;;;;;;1.33;0.90;;;19.70;1.00;;;;;;5099781;28;20537;-72
2022/07/17 07:07:41;;;;;;;4.33;0.90;;;19.80;1.00;;;;;;5093418;28;20504;-72
2022/07/17 07:10:09;;;;;;;1.17;0.90;;;20.00;1.00;;;;;;5099993;28;20805;-72
2022/07/17 07:12:36;;;;;;;1.67;0.90;;;20.10;1.00;;;;;;5098993;28;20597;-72
2022/07/17 07:15:04;;;;;;;1.10;1.00;;;20.20;1.00;;;;;;5099470;28;20455;-73
2022/07/17 07:17:32;;;;;;;1.40;0.97;;;20.10;1.00;;;;;;5099018;28;20469;-72
2022/07/17 07:19:59;;;;;;;0.97;0.80;;;20.20;1.00;;;;;;5099498;28;20455;-72
2022/07/17 07:22:27;;;;;;;1.40;0.90;;;20.40;1.00;;;;;;5099482;28;20573;-72
2022/07/17 07:24:54;;;;;;;1.10;0.90;;;20.60;1.00;;;;;;5099121;28;20893;-73
2022/07/17 07:27:21;;;;;;;1.00;0.90;;;20.60;1.00;;;;;;5098976;28;20452;-72
2022/07/17 07:29:48;;;;;;;1.30;0.90;;;20.70;1.00;;;;;;5099289;28;20967;-72
2022/07/17 07:32:15;;;;;;;2.37;0.90;;;20.70;1.00;;;;;;5098819;28;20513;-72
2022/07/17 07:34:42;;;;;;;1.43;0.90;;;20.80;1.00;;;;;;5097788;28;20960;-72
2022/07/17 07:37:10;;;;;;;1.50;0.90;;;20.80;1.00;;;;;;5099034;28;20529;-72
2022/07/17 07:39:38;;;;;;;1.10;0.70;;;20.90;1.00;;;;;;5098881;28;20484;-73
2022/07/17 07:42:05;;;;;;;0.77;0.70;;;21.10;1.00;;;;;;5099018;28;20834;-70
2022/07/17 07:44:32;;;;;;;1.17;0.70;;;21.20;1.00;;;;;;5098154;28;20453;-71
2022/07/17 07:46:59;;;;;;;1.50;0.80;;;21.20;1.00;;;;;;5097517;28;20536;-71
2022/07/17 07:49:26;;;;;;;0.87;0.70;;;21.30;1.00;;;;;;5097518;28;20824;-71
2022/07/17 07:51:53;;;;;;;1.00;0.80;;;21.40;1.00;;;;;;5098085;28;20564;-71
2022/07/17 07:54:21;;;;;;;0.93;0.80;;;21.40;1.00;;;;;;5097420;28;20544;-72
2022/07/17 07:56:49;;;;;;;1.30;0.77;;;21.60;1.00;;;;;;5091068;28;20894;-71
2022/07/17 07:59:16;;;;;;;0.83;0.70;;;21.70;1.00;;;;;;5092911;28;20461;-71
2022/07/17 08:01:43;;;;;;;1.53;0.90;;;21.80;1.00;;;;;;5095171;28;20456;-71
2022/07/17 08:04:10;;;;;;;2.07;1.53;;;21.80;1.00;;;;;;5097180;28;20453;-71
2022/07/17 08:06:38;;;;;;;1.77;0.80;;;21.90;1.00;;;;;;5098478;28;20507;-71
2022/07/17 08:09:05;;;;;;;1.10;0.90;;;22.10;1.00;;;;;;5094528;28;20465;-72
2022/07/17 08:11:32;;;;;;;3.57;0.87;;;22.30;1.00;;;;;;5096162;28;20485;-72
2022/07/17 08:14:02;;;;;;;1.00;0.80;;;22.50;1.00;;;;;;5096658;28;20457;-72
2022/07/17 08:16:29;;;;;;;0.80;0.70;;;22.50;1.00;;;;;;5098025;28;20469;-72
2022/07/17 08:18:56;;;;;;;0.80;0.60;;;22.50;1.00;;;;;;5096586;28;20868;-72
2022/07/17 08:21:23;;;;;;;0.80;0.70;;;22.60;1.00;;;;;;5096707;28;20747;-71
2022/07/17 08:23:50;;;;;;;1.50;0.70;;;22.70;1.00;;;;;;5097026;28;20855;-72
2022/07/17 08:26:17;;;;;;;1.10;0.80;;;22.70;1.00;;;;;;5097021;28;20499;-71
2022/07/17 08:28:44;;;;;;;0.83;0.67;;;22.70;1.00;;;;;;5096480;28;20523;-71
2022/07/17 08:31:13;;;;;;;1.47;0.80;;;22.70;1.00;;;;;;5096987;28;20746;-71
2022/07/17 08:33:40;;;;;;;1.17;0.70;;;22.80;1.00;;;;;;5098015;28;20441;-71
2022/07/17 08:36:07;;;;;;;1.93;0.70;;;22.90;1.00;;;;;;5097620;28;20511;-70
2022/07/17 08:38:34;;;;;;;0.77;0.60;;;23.00;1.00;;;;;;5096955;28;20528;-72
2022/07/17 08:41:04;;;;;;;0.90;0.70;;;23.20;1.00;;;;;;5112332;28;20541;-72
2022/07/17 08:43:31;;;;;;;0.70;0.57;;;23.30;1.00;;;;;;5118333;28;20448;-71
2022/07/17 08:46:00;;;;;;;0.90;0.70;;;23.30;1.00;;;;;;5117675;28;20455;-71
2022/07/17 08:48:29;;;;;;;1.67;0.70;;;23.20;1.00;;;;;;5132948;27;20458;-71
2022/07/17 08:51:00;;;;;;;0.90;0.70;;;22.90;1.00;;;;;;5138052;27;20505;-71
2022/07/17 08:53:28;;;;;;;0.80;0.70;;;23.00;1.00;;;;;;5138532;27;20514;-72
2022/07/17 08:55:55;;;;;;;0.83;0.63;;;23.00;1.00;;;;;;5139021;27;20451;-71
2022/07/17 08:58:22;;;;;;;1.10;0.70;;;23.20;1.00;;;;;;5138456;27;20481;-71
2022/07/17 09:00:51;;;;;;;1.23;0.80;;;23.40;1.00;;;;;;5117984;27;20807;-70
2022/07/17 09:03:18;;;;;;;0.80;0.70;;;23.60;1.00;;;;;;5111600;28;20797;-69
2022/07/17 09:05:48;;;;;;;0.80;0.70;;;23.60;1.00;;;;;;5118049;28;20470;-72
2022/07/17 09:08:20;;;;;;;1.00;0.70;;;23.60;1.00;;;;;;5107515;28;20445;-71
2022/07/17 09:10:51;;;;;;;1.03;0.80;;;23.70;1.00;;;;;;5099110;28;20496;-71
2022/07/17 09:13:22;;;;;;;0.90;0.60;;;23.80;1.00;;;;;;5137869;27;20482;-71
2022/07/17 09:15:51;;;;;;;0.80;0.70;;;23.90;1.00;;;;;;5134740;27;20939;-71
2022/07/17 09:18:18;;;;;;;1.00;0.70;;;24.20;1.00;;;;;;5117171;28;20517;-71
2022/07/17 09:20:48;;;;;;;0.70;0.70;;;24.40;1.00;;;;;;5115571;28;20515;-72
2022/07/17 09:23:16;;;;;;;1.00;0.70;;;24.50;1.00;;;;;;5112758;28;20491;-72
2022/07/17 09:25:45;;;;;;;0.80;0.70;;;24.50;1.00;;;;;;5115925;28;20511;-73
2022/07/17 09:28:14;;;;;;;0.70;0.57;;;24.60;1.00;;;;;;5111896;28;20500;-72
2022/07/17 09:30:43;;;;;;;0.70;0.60;;;24.70;1.00;;;;;;5113123;28;20545;-72
2022/07/17 09:33:14;;;;;;;0.90;0.60;;;24.90;1.00;;;;;;5123707;28;20831;-72
2022/07/17 09:35:50;;;;;;;1.13;0.70;;;25.00;1.00;;;;;;5113216;28;20464;-72
2022/07/17 09:38:31;;;;;;;0.90;0.73;;;25.00;1.00;;;;;;5113278;28;20464;-72
2022/07/17 09:41:12;;;;;;;0.70;0.60;;;25.10;1.00;;;;;;5118184;28;21005;-71
2022/07/17 09:43:45;;;;;;;0.70;0.60;;;25.30;1.00;;;;;;5118781;28;20447;-71
2022/07/17 09:46:18;;;;;;;1.00;0.60;;;25.50;1.00;;;;;;5115632;28;20776;-71
2022/07/17 09:48:50;;;;;;;0.60;0.50;;;25.30;1.00;;;;;;5113772;28;20489;-71
2022/07/17 09:51:21;;;;;;;0.70;0.50;;;25.40;1.00;;;;;;5114396;28;20452;-72
2022/07/17 09:53:49;;;;;;;0.70;0.60;;;25.50;1.00;;;;;;5112985;28;20480;-72
2022/07/17 09:56:19;;;;;;;1.00;0.50;;;25.60;1.00;;;;;;5114454;28;21093;-71
2022/07/17 09:58:48;;;;;;;0.60;0.60;;;25.70;1.00;;;;;;5110539;28;20488;-72
2022/07/17 10:01:16;;;;;;;0.80;0.60;;;25.60;1.00;;;;;;5113019;28;20543;-71
2022/07/17 10:03:44;;;;;;;0.70;0.50;;;25.60;1.00;;;;;;5114533;28;20457;-72
2022/07/17 10:06:12;;;;;;;0.70;0.53;;;25.70;1.00;;;;;;5112321;28;20487;-73
2022/07/17 10:08:40;;;;;;;0.80;0.60;;;25.90;1.00;;;;;;5114671;28;20437;-72
2022/07/17 10:11:08;;;;;;;0.87;0.57;;;26.10;1.00;;;;;;5114800;28;20865;-71
2022/07/17 10:13:38;;;;;;;0.80;0.60;;;26.40;1.00;;;;;;5115249;28;21121;-73
2022/07/17 10:16:05;;;;;;;0.73;0.60;;;26.40;1.00;;;;;;5112742;28;20474;-72
2022/07/17 10:18:40;;;;;;;0.70;0.60;;;26.40;1.00;;;;;;5114371;28;20445;-72
2022/07/17 10:21:11;;;;;;;0.70;0.60;;;26.50;1.00;;;;;;5115702;28;20451;-72
2022/07/17 10:23:40;;;;;;;0.67;0.57;;;26.80;1.00;;;;;;5111140;28;20441;-71
2022/07/17 10:26:07;;;;;;;0.70;0.60;;;27.00;1.00;;;;;;5115269;28;20907;-72
2022/07/17 10:28:42;;;;;;;0.70;0.60;;;27.20;1.00;;;;;;5114567;28;20506;-72
2022/07/17 10:31:09;;;;;;;0.70;0.60;;;27.30;1.00;;;;;;5115260;28;20566;-71
2022/07/17 10:33:36;;;;;;;0.60;0.50;;;27.80;1.00;;;;;;5115156;28;20481;-70
2022/07/17 10:36:04;;;;;;;0.70;0.60;;;28.20;1.00;;;;;;5116809;28;20514;-72
2022/07/17 10:38:43;;;;;;;0.50;0.40;;;28.00;1.00;;;;;;5117771;28;20749;-72
2022/07/17 10:41:20;;;;;;;0.60;0.47;;;27.70;1.00;;;;;;5117725;28;20480;-72
2022/07/17 10:43:49;;;;;;;0.73;0.50;;;27.70;1.00;;;;;;5115478;28;21124;-72
2022/07/17 10:46:16;;;;;;;0.70;0.60;;;28.00;1.00;;;;;;5117043;28;20560;-73
2022/07/17 10:48:49;;;;;;;0.70;0.60;;;28.30;1.00;;;;;;5120090;28;20448;-71
2022/07/17 10:51:17;;;;;;;0.90;0.70;;;28.90;1.00;;;;;;5111043;28;20559;-72
2022/07/17 10:53:45;;;;;;;0.70;0.60;;;29.30;1.00;;;;;;5117168;28;20511;-72
2022/07/17 10:56:13;;;;;;;0.70;0.60;;;29.50;1.00;;;;;;5117559;28;20457;-72
2022/07/17 10:58:41;;;;;;;0.80;0.60;;;29.60;1.00;;;;;;5117475;28;20560;-73
2022/07/17 11:01:10;;;;;;;0.63;0.50;;;29.00;1.00;;;;;;5116573;28;20474;-72
2022/07/17 11:03:40;;;;;;;0.70;0.60;;;28.50;99.90;;;;;;5115817;28;20463;-72
2022/07/17 11:06:09;;;;;;;0.70;0.50;;;28.50;99.90;;;;;;5116691;28;20452;-72
2022/07/17 11:08:40;;;;;;;0.50;0.47;;;28.90;99.90;;;;;;5115706;28;20559;-71
2022/07/17 11:11:09;;;;;;;1.53;1.00;;;29.50;99.90;;;;;;5116147;28;20453;-72
2022/07/17 11:13:36;;;;;;;0.80;0.60;;;30.10;99.90;;;;;;5117005;28;20515;-72
2022/07/17 11:16:03;;;;;;;0.70;0.50;;;30.60;99.90;;;;;;5115625;28;20822;-71
2022/07/17 11:18:30;;;;;;;0.70;0.50;;;30.80;99.90;;;;;;5097152;28;20465;-72
2022/07/17 11:20:59;;;;;;;0.83;0.50;;;30.90;99.90;;;;;;5106683;28;20915;-71
2022/07/17 11:23:28;;;;;;;0.70;0.50;;;30.90;99.90;;;;;;5114583;28;20444;-72
2022/07/17 11:25:58;;;;;;;1.53;0.60;;;30.80;99.90;;;;;;5116030;28;20853;-72
2022/07/17 11:28:45;;;;;;;0.90;0.50;;;30.90;99.90;;;;;;5117898;28;20554;-71
2022/07/17 11:31:21;;;;;;;1.13;0.60;;;31.00;99.90;;;;;;5117645;28;20535;-72
2022/07/17 11:33:53;;;;;;;1.10;0.50;;;31.40;99.90;;;;;;5116799;28;20480;-72
2022/07/17 11:36:25;;;;;;;0.70;0.53;;;31.10;99.90;;;;;;5117401;28;20468;-72
2022/07/17 11:39:01;;;;;;;0.70;0.60;;;31.30;99.90;;;;;;5117179;28;20444;-72
2022/07/17 11:41:35;;;;;;;0.70;0.60;;;30.50;99.90;;;;;;5098033;28;20524;-72
2022/07/17 11:44:05;;;;;;;0.60;0.40;;;30.70;99.90;;;;;;5101398;28;20975;-73
2022/07/17 11:46:34;;;;;;;0.70;0.60;;;30.60;99.90;;;;;;5114714;28;20476;-72
2022/07/17 11:49:01;;;;;;;0.70;0.60;;;30.70;99.90;;;;;;5114722;28;20544;-72
2022/07/17 11:51:39;;;;;;;0.87;0.57;;;31.10;99.90;;;;;;5117056;28;20457;-72
2022/07/17 11:54:08;;;;;;;0.60;0.50;;;31.10;99.90;;;;;;5113756;28;20480;-70
2022/07/17 11:56:35;;;;;;;0.70;0.50;;;31.40;99.90;;;;;;5116790;28;20505;-71
2022/07/17 11:59:04;;;;;;;1.47;0.80;;;31.60;99.90;;;;;;5117685;28;20449;-72
2022/07/17 12:01:39;;;;;;;0.80;0.60;;;31.60;99.90;;;;;;5117515;28;20472;-72
2022/07/17 12:04:09;;;;;;;2.23;1.33;;;31.90;99.90;;;;;;5118475;28;20464;-72
2022/07/17 12:06:37;;;;;;;5.27;4.03;;;32.30;99.90;;;;;;5116560;28;20757;-71
2022/07/17 12:09:04;;;;;;;0.93;0.73;;;32.40;99.90;;;;;;5117072;28;20452;-72
2022/07/17 12:11:31;;;;;;;0.70;0.50;;;32.30;99.90;;;;;;5116637;28;20890;-72
2022/07/17 12:14:06;;;;;;;0.57;0.50;;;32.40;99.90;;;;;;5116316;28;20554;-72
2022/07/17 12:16:36;;;;;;;0.50;0.50;;;31.80;99.90;;;;;;5116467;28;20444;-72
2022/07/17 12:19:08;;;;;;;1.27;0.63;;;31.70;99.90;;;;;;5116825;28;20930;-72
2022/07/17 12:21:47;;;;;;;0.70;0.60;;;32.00;99.90;;;;;;5117413;28;20455;-71
2022/07/17 12:24:20;;;;;;;0.90;0.60;;;32.40;99.90;;;;;;5116833;28;20453;-72
2022/07/17 12:26:48;;;;;;;0.80;0.63;;;32.30;99.90;;;;;;5116536;28;20459;-72
2022/07/17 12:29:16;;;;;;;0.70;0.60;;;31.50;99.90;;;;;;5116915;28;20448;-72
2022/07/17 12:31:43;;;;;;;1.20;0.50;;;31.20;99.90;;;;;;5117098;28;20480;-72
2022/07/17 12:34:10;;;;;;;0.70;0.60;;;31.50;99.90;;;;;;5117525;28;20838;-72
2022/07/17 12:36:37;;;;;;;0.50;0.50;;;31.60;99.90;;;;;;5117865;28;20867;-71
2022/07/17 12:39:05;;;;;;;0.67;0.60;;;31.20;99.90;;;;;;5118085;28;20501;-72
2022/07/17 12:41:32;;;;;;;1.93;0.50;;;31.40;99.90;;;;;;5117850;28;20912;-72
2022/07/17 12:43:59;;;;;;;0.60;0.50;;;31.60;99.90;;;;;;5117195;28;20501;-72
2022/07/17 12:46:28;;;;;;;0.70;0.60;;;32.00;99.90;;;;;;5116097;28;20539;-71
2022/07/17 12:48:54;;;;;;;0.70;0.60;;;31.60;99.90;;;;;;5115470;28;20476;-71
2022/07/17 12:51:21;;;;;;;1.23;0.50;;;31.50;99.90;;;;;;5115123;28;20488;-72
2022/07/17 12:53:49;;;;;;;0.80;0.60;;;31.60;99.90;;;;;;5114726;28;20473;-72
2022/07/17 12:56:15;;;;;;;0.80;0.60;;;31.80;99.90;;;;;;5113603;28;20452;-73
2022/07/17 12:58:43;;;;;;;1.10;0.50;;;31.50;99.90;;;;;;5114801;28;20548;-72
2022/07/17 13:01:10;;;;;;;0.70;0.53;;;31.80;99.90;;;;;;5113825;28;20456;-72